Maran Ariadne — SVCK4 — position and weather

sailwx.info

Track history (hours):
 
Tides and Currents Weather Stations Pressure Air Temp Water Temp Dewpoint Dewpoint Depression Visibility Wind Speed Wind Dir Waves Ship Positions

Maran Ariadne

Last reported at 2018-May-31 08:41 UTC. Time now 2018-Jun-23 07:53 UTC.
Position N 01°30' E 103°08'.
Warning: this ship's position is 22 days out of date.

Length 336 m; draft 11.2 m.

Type: Tanker. MMSI: 241438000.

Date/timePositionNaut miles runAvg speedWind from/ knotsBaromVisibWave heightAir tempDewpointWater temp
2018-May-31 08:41N 01°30' E 103°08'310.5
2018-May-31 08:23N 01°28' E 103°11'510.3
2018-May-31 07:55N 01°25' E 103°14'410.0
2018-May-31 07:30N 01°22' E 103°17'5 9.5
2018-May-31 06:58N 01°18' E 103°21'4 8.9
2018-May-31 06:30N 01°15' E 103°24'4 8.2
2018-May-31 06:00N 01°14' E 103°27'4 8.7
2018-May-31 05:30N 01°13' E 103°32'5 9.1
2018-May-31 05:00N 01°12' E 103°36'4 8.9
2018-May-31 04:30N 01°11' E 103°40'4 8.4
2018-May-31 04:00N 01°08' E 103°44'5 9.9
2018-May-31 03:30N 01°10' E 103°48'5 9.5
2018-May-31 03:00N 01°12' E 103°53'3 5.6
2018-May-31 02:30N 01°14' E 103°55'2 4.6
2018-May-31 02:00N 01°15' E 103°57'1 1.6
2018-May-31 01:19N 01°16' E 103°57'0 0.2
2018-May-31 01:00N 01°16' E 103°57'0 0.1
2018-May-31 00:22N 01°16' E 103°57'0 0.0
2018-May-30 23:58N 01°16' E 103°57'0 0.1
2018-May-30 23:25N 01°16' E 103°57'0 0.0
2018-May-30 22:52N 01°16' E 103°57'0 0.0
2018-May-30 22:30N 01°16' E 103°57'0 0.0
2018-May-30 21:58N 01°16' E 103°57'0 0.0
2018-May-30 21:30N 01°16' E 103°57'0 0.0
2018-May-30 20:46N 01°16' E 103°57'0 0.0
2018-May-30 20:28N 01°16' E 103°57'0 0.0
2018-May-30 19:58N 01°16' E 103°57'0 0.1
2018-May-30 19:28N 01°16' E 103°57'0 0.0
2018-May-30 19:00N 01°16' E 103°57'0 0.0
2018-May-30 18:25N 01°16' E 103°57'0 0.0
2018-May-30 17:55N 01°16' E 103°57'0 0.2
2018-May-30 17:30N 01°16' E 103°57'0 0.2
2018-May-30 16:40N 01°16' E 103°57'0 0.1
2018-May-30 16:28N 01°16' E 103°57'0 0.0
2018-May-30 15:58N 01°16' E 103°57'0 0.1
2018-May-30 15:28N 01°16' E 103°57'0 0.0
2018-May-30 14:58N 01°16' E 103°57'0 0.0
2018-May-30 14:10N 01°16' E 103°57'0 0.0
2018-May-30 13:42N 01°16' E 103°57'0 0.0
2018-May-30 13:28N 01°16' E 103°57'0 0.0
2018-May-30 12:40N 01°16' E 103°57'0 0.1
2018-May-30 12:30N 01°16' E 103°57'0 0.0
2018-May-30 11:54N 01°16' E 103°57'0 0.0
2018-May-30 11:22N 01°16' E 103°57'0 0.1
2018-May-30 10:55N 01°16' E 103°57'0 0.0
2018-May-30 10:22N 01°16' E 103°57'0 0.0
2018-May-30 09:49N 01°16' E 103°57'0 0.0
2018-May-30 09:30N 01°16' E 103°57'0 0.0
2018-May-30 08:52N 01°16' E 103°57'0 0.0
2018-May-30 08:09N 01°16' E 103°57'0 0.0
2018-May-30 07:58N 01°16' E 103°57'0 0.0
2018-May-30 07:25N 01°16' E 103°57'0 0.0
2018-May-30 06:58N 01°16' E 103°57'0 0.0
2018-May-30 06:30N 01°16' E 103°57'0 0.0
2018-May-30 05:58N 01°16' E 103°57'0 0.2
2018-May-30 05:25N 01°16' E 103°57'0 0.1
2018-May-30 04:55N 01°16' E 103°57'0 0.0
2018-May-30 04:28N 01°16' E 103°57'0 0.1
2018-May-30 03:58N 01°16' E 103°57'0 0.0
2018-May-30 03:27N 01°16' E 103°57'0 0.0
2018-May-30 02:58N 01°16' E 103°57'0 0.3
2018-May-30 02:30N 01°16' E 103°57'0 0.4
2018-May-30 01:54N 01°16' E 103°57'0 0.3
2018-May-30 01:30N 01°16' E 103°57'1 2.8
2018-May-30 01:00N 01°16' E 103°58'1 1.6
2018-May-30 00:29N 01°16' E 103°59'3 5.5
2018-May-30 00:00N 01°16' E 104°02'510.1
2018-May-29 23:29N 01°17' E 104°07'5 9.8
2018-May-29 23:00N 01°18' E 104°12'5 9.3
2018-May-29 22:29N 01°18' E 104°17'511.2
2018-May-29 22:00N 01°20' E 104°21'611.6
2018-May-29 21:30N 01°24' E 104°25'711.5
2018-May-29 20:52N 01°29' E 104°31'3 8.9
2018-May-29 20:28N 01°32' E 104°33'3 5.1
2018-May-29 19:56N 01°34' E 104°35'510.2
2018-May-29 19:26N 01°37' E 104°39'  
Track history (hours):
 
Tides and Currents Weather Stations Pressure Air Temp Water Temp Dewpoint Dewpoint Depression Visibility Wind Speed Wind Dir Waves Ship Positions

Maran Ariadne

Last reported at 2018-May-31 08:41 UTC. Time now 2018-Jun-23 07:53 UTC.
Position N 01°30' E 103°08'.
Warning: this ship's position is 22 days out of date.

Length 336 m; draft 11.2 m.

Type: Tanker. MMSI: 241438000.

Date/timePositionNaut miles runAvg speedWind from/ knotsBaromVisibWave heightAir tempDewpointWater temp
2018-May-31 08:41N 01°30' E 103°08'310.5
2018-May-31 08:23N 01°28' E 103°11'510.3
2018-May-31 07:55N 01°25' E 103°14'410.0
2018-May-31 07:30N 01°22' E 103°17'5 9.5
2018-May-31 06:58N 01°18' E 103°21'4 8.9
2018-May-31 06:30N 01°15' E 103°24'4 8.2
2018-May-31 06:00N 01°14' E 103°27'4 8.7
2018-May-31 05:30N 01°13' E 103°32'5 9.1
2018-May-31 05:00N 01°12' E 103°36'4 8.9
2018-May-31 04:30N 01°11' E 103°40'4 8.4
2018-May-31 04:00N 01°08' E 103°44'5 9.9
2018-May-31 03:30N 01°10' E 103°48'5 9.5
2018-May-31 03:00N 01°12' E 103°53'3 5.6
2018-May-31 02:30N 01°14' E 103°55'2 4.6
2018-May-31 02:00N 01°15' E 103°57'1 1.6
2018-May-31 01:19N 01°16' E 103°57'0 0.2
2018-May-31 01:00N 01°16' E 103°57'0 0.1
2018-May-31 00:22N 01°16' E 103°57'0 0.0
2018-May-30 23:58N 01°16' E 103°57'0 0.1
2018-May-30 23:25N 01°16' E 103°57'0 0.0
2018-May-30 22:52N 01°16' E 103°57'0 0.0
2018-May-30 22:30N 01°16' E 103°57'0 0.0
2018-May-30 21:58N 01°16' E 103°57'0 0.0
2018-May-30 21:30N 01°16' E 103°57'0 0.0
2018-May-30 20:46N 01°16' E 103°57'0 0.0
2018-May-30 20:28N 01°16' E 103°57'0 0.0
2018-May-30 19:58N 01°16' E 103°57'0 0.1
2018-May-30 19:28N 01°16' E 103°57'0 0.0
2018-May-30 19:00N 01°16' E 103°57'0 0.0
2018-May-30 18:25N 01°16' E 103°57'0 0.0
2018-May-30 17:55N 01°16' E 103°57'0 0.2
2018-May-30 17:30N 01°16' E 103°57'0 0.2
2018-May-30 16:40N 01°16' E 103°57'0 0.1
2018-May-30 16:28N 01°16' E 103°57'0 0.0
2018-May-30 15:58N 01°16' E 103°57'0 0.1
2018-May-30 15:28N 01°16' E 103°57'0 0.0
2018-May-30 14:58N 01°16' E 103°57'0 0.0
2018-May-30 14:10N 01°16' E 103°57'0 0.0
2018-May-30 13:42N 01°16' E 103°57'0 0.0
2018-May-30 13:28N 01°16' E 103°57'0 0.0
2018-May-30 12:40N 01°16' E 103°57'0 0.1
2018-May-30 12:30N 01°16' E 103°57'0 0.0
2018-May-30 11:54N 01°16' E 103°57'0 0.0
2018-May-30 11:22N 01°16' E 103°57'0 0.1
2018-May-30 10:55N 01°16' E 103°57'0 0.0
2018-May-30 10:22N 01°16' E 103°57'0 0.0
2018-May-30 09:49N 01°16' E 103°57'0 0.0
2018-May-30 09:30N 01°16' E 103°57'0 0.0
2018-May-30 08:52N 01°16' E 103°57'0 0.0
2018-May-30 08:09N 01°16' E 103°57'0 0.0
2018-May-30 07:58N 01°16' E 103°57'0 0.0
2018-May-30 07:25N 01°16' E 103°57'0 0.0
2018-May-30 06:58N 01°16' E 103°57'0 0.0
2018-May-30 06:30N 01°16' E 103°57'0 0.0
2018-May-30 05:58N 01°16' E 103°57'0 0.2
2018-May-30 05:25N 01°16' E 103°57'0 0.1
2018-May-30 04:55N 01°16' E 103°57'0 0.0
2018-May-30 04:28N 01°16' E 103°57'0 0.1
2018-May-30 03:58N 01°16' E 103°57'0 0.0
2018-May-30 03:27N 01°16' E 103°57'0 0.0
2018-May-30 02:58N 01°16' E 103°57'0 0.3
2018-May-30 02:30N 01°16' E 103°57'0 0.4
2018-May-30 01:54N 01°16' E 103°57'0 0.3
2018-May-30 01:30N 01°16' E 103°57'1 2.8
2018-May-30 01:00N 01°16' E 103°58'1 1.6
2018-May-30 00:29N 01°16' E 103°59'3 5.5
2018-May-30 00:00N 01°16' E 104°02'510.1
2018-May-29 23:29N 01°17' E 104°07'5 9.8
2018-May-29 23:00N 01°18' E 104°12'5 9.3
2018-May-29 22:29N 01°18' E 104°17'511.2
2018-May-29 22:00N 01°20' E 104°21'611.6
2018-May-29 21:30N 01°24' E 104°25'711.5
2018-May-29 20:52N 01°29' E 104°31'3 8.9
2018-May-29 20:28N 01°32' E 104°33'3 5.1
2018-May-29 19:56N 01°34' E 104°35'510.2
2018-May-29 19:26N 01°37' E 104°39'  

Dump ship's entire track history